Date,TemperatureHighF,TemperatureAvgF,TemperatureLowF,DewpointHighF,DewpointAvgF,DewpointLowF,HumidityHigh,HumidityAvg,HumidityLow,PressureMaxIn,PressureMinIn,WindSpeedMaxMPH,WindSpeedAvgMPH,GustSpeedMaxMPH,PrecipitationSumIn
2013-5-1,81,62,45,49,42,36,95,52,24,30.21,30.02,10,1,10,0.00
2013-5-2,84,65,47,58,46,40,87,54,28,30.21,30.08,10,2,13,0.00
2013-5-3,75,60,44,50,39,31,78,48,25,30.24,30.07,9,2,12,0.00
2013-5-4,80,61,44,58,47,42,100,65,33,30.09,29.94,9,1,9,0.00
2013-5-5,80,62,45,52,41,35,90,53,21,30.01,29.89,10,2,13,0.00
2013-5-6,80,61,44,52,39,23,96,51,14,29.97,29.82,12,1,12,0.00
2013-5-7,84,65,47,60,46,31,100,58,17,29.92,29.82,9,1,9,0.00
2013-5-8,79,63,52,67,58,49,100,86,46,29.92,29.77,9,1,9,0.16
2013-5-9,76,64,56,64,58,53,100,83,47,29.77,29.63,9,1,9,0.01
2013-5-10,78,62,54,68,60,54,100,92,58,29.76,29.54,12,1,12,0.00
2013-5-11,69,62,57,68,61,50,100,95,74,29.55,29.39,10,2,11,0.24
2013-5-12,61,53,44,54,43,31,100,71,34,29.52,29.39,12,1,13,0.00
2013-5-13,53,46,39,39,34,29,89,63,47,29.76,29.51,18,2,19,0.00
2013-5-14,61,46,31,44,36,28,100,69,36,29.83,29.73,12,1,12,0.00
2013-5-15,62,47,32,55,43,32,100,89,38,29.74,29.35,12,1,16,0.05
2013-5-16,79,60,45,55,46,37,100,66,25,29.62,29.35,18,3,20,0.00
2013-5-17,68,54,41,51,44,39,100,72,42,29.94,29.62,18,2,19,0.00
2013-5-18,76,57,37,54,44,37,100,68,28,30.06,29.94,8,1,9,0.00
2013-5-19,70,57,48,60,54,46,100,91,67,30.05,29.87,14,1,14,0.24
2013-5-20,78,64,56,72,62,56,100,95,69,29.88,29.73,9,2,12,0.00
2013-5-21,78,62,56,77,61,56,100,96,81,29.73,29.57,17,2,21,0.73
2013-5-22,78,67,57,76,66,56,100,98,84,29.64,29.52,12,1,12,0.04
2013-5-23,78,69,61,72,67,60,100,95,72,29.58,29.49,12,2,12,0.53
2013-5-24,61,49,44,61,49,44,100,100,96,29.74,29.45,22,5,24,0.68
2013-5-25,44,43,42,44,43,42,100,100,100,29.72,29.62,30,6,30,0.93
2013-5-26,50,45,39,50,44,39,100,98,82,29.82,29.57,20,3,23,0.14
2013-5-27,69,53,37,53,44,37,100,76,38,29.93,29.79,12,2,13,0.00
2013-5-28,74,57,38,58,49,38,100,78,39,29.99,29.85,8,1,9,0.00
2013-5-29,68,61,55,68,61,53,100,99,84,29.85,29.70,9,1,9,0.09
2013-5-30,90,73,60,75,66,60,100,80,42,29.88,29.76,9,1,12,0.00
2013-5-31,91,75,62,79,68,60,100,82,48,29.86,29.70,11,1,13,0.00